Terminal Aerodrome Forecast
Issued by NWS Mobile, AL

Home | Current Version | Previous Version | Text Only | Print | Product List | Glossary On
Versions: 1 2 3 4 5 6 7 8 9 10 11 12 13 14 15 16 17 18 19 20 21 22
000
FTUS44 KMOB 240125 AAB
TAFMOB
TAF AMD
KMOB 240125Z 2401/2424 14009KT P6SM -RA VCTS SCT028CB SCT035 BKN110
     FM240200 13007KT P6SM SCT028 BKN100 BKN250
     FM241500 VRB05KT P6SM VCSH BKN030 BKN250
     FM241800 20005KT P6SM VCSH SCT030 PROB30 2418/2424 4SM TSRA
      BKN025CB=

USA.gov is the U.S. government's official web portal to all federal, state and local government web resources and services.